Lakeview, Montana
Current Conditions -  °F | °C
As of 6:53 PM on Sunday 25 Jan 2015 (Local Time) from KRXE Reporting Station
Overcast Overcast  
Wind Chill: 26°   Ceiling: 2700
Heat Index: 32°   Visibility: 9mi
Dew Point: 31°   Wind: 7mph
Humidity: 96%   Direction: 30°NNE
Pressure: 30.45"   Gusts: NA
Location:  44.6°N, 111.81°W
Report Text: KRXE 260153Z AUTO 03006KT 9SM OVC027 00/M01 A3045 RMK AO2 SLP345 T00001006
Loading
Personal Weather Stations






























Interactive Weather Map New forecast layout! Learn more

10-Day Weather Forecast

Advertisements
Track Severe Weather on mobile